Time;durP1;ratioP1;P1;durP2;ratioP2;P2;SDS_P1;SDS_P2;PMS_P1;PMS_P2;Temp;Humidity;BMP_temperature;BMP_pressure;BME280_temperature;BME280_humidity;BME280_pressure;Samples;Min_cycle;Max_cycle;Signal;HPM_P1;HPM_P2
2022/10/21 00:00:35;;;;;;;29.52;19.35;;;11.10;99.90;;;;;;4951364;28;20051;-71
2022/10/21 00:03:00;;;;;;;30.35;21.10;;;11.10;99.90;;;;;;4950192;28;20042;-72
2022/10/21 00:05:26;;;;;;;35.42;22.73;;;11.00;99.90;;;;;;4953418;28;20482;-72
2022/10/21 00:07:52;;;;;;;28.90;19.33;;;11.00;99.90;;;;;;4947795;28;20051;-71
2022/10/21 00:10:17;;;;;;;96.95;18.95;;;11.00;99.90;;;;;;4948048;28;20046;-71
2022/10/21 00:12:43;;;;;;;31.77;19.30;;;11.00;99.90;;;;;;4947845;28;20043;-73
2022/10/21 00:15:09;;;;;;;34.30;22.20;;;11.00;99.90;;;;;;4946998;28;20043;-72
2022/10/21 00:17:37;;;;;;;37.65;22.73;;;11.00;99.90;;;;;;4946800;28;20039;-71
2022/10/21 00:20:09;;;;;;;35.33;23.15;;;11.00;99.90;;;;;;4950603;28;20049;-71
2022/10/21 00:22:35;;;;;;;31.75;20.67;;;11.00;99.90;;;;;;4951007;28;20520;-73
2022/10/21 00:25:00;;;;;;;33.30;19.02;;;11.00;99.90;;;;;;4947193;28;20055;-71
2022/10/21 00:27:26;;;;;;;32.42;20.77;;;11.00;99.90;;;;;;4947250;28;20039;-71
2022/10/21 00:29:52;;;;;;;33.90;21.83;;;11.00;99.90;;;;;;4949313;28;20412;-71
2022/10/21 00:32:18;;;;;;;43.20;22.27;;;10.90;99.90;;;;;;4950383;28;20206;-72
2022/10/21 00:34:43;;;;;;;41.35;19.88;;;11.00;99.90;;;;;;4952234;28;20445;-71
2022/10/21 00:37:09;;;;;;;51.40;22.80;;;11.00;99.90;;;;;;4945718;28;20047;-72
2022/10/21 00:39:36;;;;;;;38.22;24.25;;;10.90;99.90;;;;;;4945837;28;20547;-73
2022/10/21 00:42:04;;;;;;;41.22;23.15;;;11.00;99.90;;;;;;4946400;28;20047;-71
2022/10/21 00:44:30;;;;;;;36.90;23.48;;;10.90;99.90;;;;;;4949816;28;20043;-72
2022/10/21 00:47:08;;;;;;;42.45;23.70;;;11.00;99.90;;;;;;4946136;28;20043;-72
2022/10/21 00:49:38;;;;;;;36.38;19.65;;;10.90;99.90;;;;;;4947508;28;20039;-72
2022/10/21 00:52:07;;;;;;;38.78;23.05;;;11.00;99.90;;;;;;4947735;28;20046;-73
2022/10/21 00:54:34;;;;;;;45.05;25.27;;;10.90;99.90;;;;;;4947705;28;20035;-71
2022/10/21 00:56:59;;;;;;;40.15;24.05;;;10.90;99.90;;;;;;4945463;28;20099;-73
2022/10/21 00:59:32;;;;;;;134.65;24.73;;;10.90;99.90;;;;;;4951005;28;20035;-71
2022/10/21 01:01:58;;;;;;;60.65;21.80;;;10.90;99.90;;;;;;4949126;28;20058;-72
2022/10/21 01:04:23;;;;;;;95.75;24.02;;;11.00;99.90;;;;;;4945945;28;20498;-73
2022/10/21 01:06:49;;;;;;;40.13;22.27;;;10.90;99.90;;;;;;4943946;28;20047;-72
2022/10/21 01:09:16;;;;;;;61.20;22.30;;;10.90;99.90;;;;;;4943768;28;20070;-72
2022/10/21 01:11:44;;;;;;;70.28;22.08;;;10.90;99.90;;;;;;4947590;28;20043;-71
2022/10/21 01:14:36;;;;;;;98.97;22.05;;;10.90;99.90;;;;;;4948693;28;20498;-70
2022/10/21 01:17:07;;;;;;;31.02;20.15;;;10.90;99.90;;;;;;4945943;28;20134;-71
2022/10/21 01:19:32;;;;;;;32.10;21.30;;;10.90;99.90;;;;;;4944663;28;20047;-73
2022/10/21 01:22:24;;;;;;;31.35;20.00;;;10.90;99.90;;;;;;4950807;28;20065;-71
2022/10/21 01:25:14;;;;;;;70.68;21.70;;;10.80;99.90;;;;;;4952031;28;20129;-71
2022/10/21 01:28:06;;;;;;;74.35;19.35;;;10.80;99.90;;;;;;4941703;28;20158;-74
2022/10/21 01:30:48;;;;;;;39.15;19.88;;;10.80;99.90;;;;;;4959557;28;20490;-71
2022/10/21 01:33:31;;;;;;;51.53;21.52;;;10.80;99.90;;;;;;4945816;28;20402;-72
2022/10/21 01:36:03;;;;;;;29.67;19.00;;;10.80;99.90;;;;;;4946817;28;20141;-71
2022/10/21 01:38:38;;;;;;;28.43;20.30;;;10.80;99.90;;;;;;4927869;28;20486;-73
2022/10/21 01:41:18;;;;;;;31.27;20.48;;;10.80;99.90;;;;;;4945856;28;20313;-72
2022/10/21 01:44:13;;;;;;;44.25;22.20;;;10.80;99.90;;;;;;4947827;28;20401;-71
2022/10/21 01:46:58;;;;;;;43.95;23.45;;;10.90;99.90;;;;;;4945273;28;20130;-71
2022/10/21 01:49:44;;;;;;;43.08;25.30;;;10.90;99.90;;;;;;4945509;28;20047;-72
2022/10/21 01:52:11;;;;;;;42.67;23.75;;;10.90;99.90;;;;;;4950968;28;20053;-70
2022/10/21 01:54:42;;;;;;;54.88;27.92;;;11.00;99.90;;;;;;4947250;28;20062;-72
2022/10/21 01:57:11;;;;;;;54.28;27.23;;;11.00;99.90;;;;;;4943774;28;20465;-72
2022/10/21 01:59:38;;;;;;;47.63;26.20;;;11.00;99.90;;;;;;4945327;28;20044;-74
2022/10/21 02:02:06;;;;;;;46.95;26.92;;;11.10;99.90;;;;;;4943859;28;20508;-72
2022/10/21 02:04:34;;;;;;;38.55;25.52;;;11.10;99.90;;;;;;4942633;28;20489;-71
2022/10/21 02:07:00;;;;;;;41.42;25.85;;;11.20;99.90;;;;;;4943852;28;20051;-72
2022/10/21 02:09:26;;;;;;;50.15;28.98;;;11.20;99.90;;;;;;4942342;28;20209;-71
2022/10/21 02:11:55;;;;;;;47.55;27.10;;;11.20;99.90;;;;;;4951142;28;21829;-71
2022/10/21 02:14:32;;;;;;;51.95;26.52;;;11.30;99.90;;;;;;4944918;28;20070;-73
2022/10/21 02:16:59;;;;;;;57.42;29.52;;;11.30;99.90;;;;;;4944873;28;20043;-74
2022/10/21 02:19:25;;;;;;;50.13;30.05;;;11.30;99.90;;;;;;4942508;28;20054;-72
2022/10/21 02:21:53;;;;;;;57.70;32.25;;;11.40;99.90;;;;;;4946039;28;20051;-72
2022/10/21 02:24:57;;;;;;;69.68;36.15;;;11.50;99.90;;;;;;4946248;28;20104;-72
2022/10/21 02:27:23;;;;;;;88.72;38.25;;;11.60;99.90;;;;;;4920556;29;20048;-73
2022/10/21 02:29:54;;;;;;;69.00;37.20;;;11.70;99.90;;;;;;4940446;28;20663;-74
2022/10/21 02:32:19;;;;;;;69.57;35.25;;;11.70;99.90;;;;;;4946693;28;20050;-74
2022/10/21 02:34:51;;;;;;;65.28;33.58;;;11.80;99.90;;;;;;4946437;28;20039;-73
2022/10/21 02:37:16;;;;;;;62.10;31.83;;;11.90;99.90;;;;;;4946581;28;20039;-74
2022/10/21 02:39:51;;;;;;;72.32;31.20;;;11.80;99.90;;;;;;4945703;28;20042;-74
2022/10/21 02:42:24;;;;;;;72.47;32.83;;;11.80;99.90;;;;;;4938439;28;20064;-74
2022/10/21 02:44:51;;;;;;;67.82;33.00;;;11.80;99.90;;;;;;4958059;28;20044;-73
2022/10/21 02:47:16;;;;;;;80.07;37.42;;;11.80;99.90;;;;;;4929369;29;20434;-72
2022/10/21 02:49:46;;;;;;;104.78;39.72;;;11.90;99.90;;;;;;4940505;28;20043;-74
2022/10/21 02:52:11;;;;;;;76.93;35.33;;;12.00;99.90;;;;;;4942538;28;20510;-75
2022/10/21 02:54:37;;;;;;;58.70;30.33;;;12.00;99.90;;;;;;4946969;28;20063;-75
2022/10/21 02:57:03;;;;;;;139.43;38.22;;;12.00;99.90;;;;;;4942278;28;20047;-73
2022/10/21 02:59:28;;;;;;;169.48;38.45;;;12.00;99.90;;;;;;4942191;28;20051;-74
2022/10/21 03:01:54;;;;;;;108.82;33.88;;;12.00;99.90;;;;;;4946439;28;20159;-74
2022/10/21 03:04:19;;;;;;;78.13;31.45;;;12.00;99.90;;;;;;4945079;28;20122;-73
2022/10/21 03:06:45;;;;;;;197.40;35.22;;;12.00;99.90;;;;;;4942341;28;20047;-71
2022/10/21 03:09:10;;;;;;;238.63;37.17;;;12.00;99.90;;;;;;4943753;28;20105;-73
2022/10/21 03:11:36;;;;;;;191.57;35.17;;;12.00;99.90;;;;;;4964149;28;20182;-74
2022/10/21 03:14:01;;;;;;;228.32;36.28;;;12.00;99.90;;;;;;4940951;28;20063;-72
2022/10/21 03:16:27;;;;;;;56.42;28.48;;;12.00;99.90;;;;;;4945845;28;20054;-74
2022/10/21 03:18:53;;;;;;;276.73;41.22;;;12.00;99.90;;;;;;4945605;28;20055;-75
2022/10/21 03:21:18;;;;;;;96.35;30.13;;;12.10;99.90;;;;;;4945930;28;20134;-75
2022/10/21 03:23:44;;;;;;;390.33;42.03;;;12.00;99.90;;;;;;4945874;28;20058;-76
2022/10/21 03:26:09;;;;;;;268.77;29.15;;;12.00;99.90;;;;;;4941241;28;20084;-74
2022/10/21 03:28:35;;;;;;;131.02;27.00;;;12.00;99.90;;;;;;4946539;28;20050;-74
2022/10/21 03:31:00;;;;;;;334.83;36.67;;;11.90;99.90;;;;;;4947335;28;20054;-73
2022/10/21 03:33:26;;;;;;;233.38;38.90;;;11.90;99.90;;;;;;4947680;28;20039;-71
2022/10/21 03:35:51;;;;;;;235.45;33.00;;;11.90;99.90;;;;;;4948815;28;20138;-72
2022/10/21 03:38:17;;;;;;;59.33;26.77;;;11.90;99.90;;;;;;4949167;28;20098;-74
2022/10/21 03:40:42;;;;;;;79.53;22.02;;;11.90;99.90;;;;;;4947286;28;20097;-70
2022/10/21 03:43:08;;;;;;;279.52;19.85;;;11.80;99.90;;;;;;4949705;28;20054;-69
2022/10/21 03:45:33;;;;;;;285.73;19.60;;;11.80;99.90;;;;;;4946925;28;20051;-69
2022/10/21 03:47:59;;;;;;;300.95;18.10;;;11.70;99.90;;;;;;4950632;28;20450;-72
2022/10/21 03:50:25;;;;;;;224.63;18.80;;;11.60;99.90;;;;;;4951283;28;20058;-69
2022/10/21 03:52:50;;;;;;;158.13;19.20;;;11.60;99.90;;;;;;4952860;28;20054;-73
2022/10/21 03:55:19;;;;;;;170.02;20.60;;;11.60;99.90;;;;;;4949692;28;20047;-71
2022/10/21 03:57:47;;;;;;;56.55;15.05;;;11.60;99.90;;;;;;4943931;28;20052;-72
2022/10/21 04:00:14;;;;;;;41.95;14.60;;;11.50;99.90;;;;;;4947554;28;20122;-71
2022/10/21 04:02:39;;;;;;;46.50;16.13;;;11.60;99.90;;;;;;4946655;28;20047;-73
2022/10/21 04:05:06;;;;;;;70.53;15.95;;;11.50;99.90;;;;;;4950528;28;20054;-70
2022/10/21 04:07:31;;;;;;;83.03;15.32;;;11.50;99.90;;;;;;4954451;28;22299;-73
2022/10/21 04:09:57;;;;;;;57.13;17.42;;;11.60;99.90;;;;;;4950885;28;20066;-73
2022/10/21 04:12:23;;;;;;;67.28;20.10;;;11.60;99.90;;;;;;4952013;28;20058;-73
2022/10/21 04:14:48;;;;;;;100.50;22.50;;;11.60;99.90;;;;;;4951425;28;20058;-73
2022/10/21 04:17:14;;;;;;;55.85;21.20;;;11.60;99.90;;;;;;4953534;28;20035;-70
2022/10/21 04:19:39;;;;;;;118.47;26.70;;;11.60;99.90;;;;;;4952158;28;20032;-70
2022/10/21 04:22:05;;;;;;;66.18;21.45;;;11.70;99.90;;;;;;4956526;28;20514;-72
2022/10/21 04:24:30;;;;;;;85.75;24.73;;;11.70;99.90;;;;;;4952539;28;20043;-71
2022/10/21 04:26:56;;;;;;;48.17;22.77;;;11.60;99.90;;;;;;4951712;28;20051;-72
2022/10/21 04:29:21;;;;;;;44.53;21.45;;;11.70;99.90;;;;;;4952937;28;20130;-72
2022/10/21 04:31:47;;;;;;;62.42;25.27;;;11.70;99.90;;;;;;4949908;28;20051;-72
2022/10/21 04:34:12;;;;;;;92.13;24.52;;;11.70;99.90;;;;;;4952181;28;20462;-71
2022/10/21 04:36:38;;;;;;;208.13;29.83;;;11.60;99.90;;;;;;4943920;28;20047;-72
2022/10/21 04:39:04;;;;;;;53.10;23.05;;;11.60;99.90;;;;;;4953318;28;20042;-72
2022/10/21 04:41:30;;;;;;;43.00;22.02;;;11.70;99.90;;;;;;4949993;28;20067;-73
2022/10/21 04:43:55;;;;;;;38.58;23.38;;;11.60;99.90;;;;;;4946165;28;20050;-72
2022/10/21 04:46:21;;;;;;;116.03;28.70;;;11.60;99.90;;;;;;4950552;28;20055;-71
2022/10/21 04:48:46;;;;;;;127.60;25.65;;;11.60;99.90;;;;;;4951230;28;20126;-71
2022/10/21 04:51:12;;;;;;;135.10;24.65;;;11.60;99.90;;;;;;4950419;28;20066;-71
2022/10/21 04:53:38;;;;;;;195.88;27.85;;;11.60;99.90;;;;;;4952752;28;20031;-73
2022/10/21 04:56:04;;;;;;;479.67;38.13;;;11.50;99.90;;;;;;4933317;29;20047;-72
2022/10/21 04:58:30;;;;;;;224.27;25.73;;;11.60;99.90;;;;;;4951415;28;20055;-72
2022/10/21 05:00:55;;;;;;;115.07;21.60;;;11.50;99.90;;;;;;4946492;28;20059;-71
2022/10/21 05:03:21;;;;;;;394.02;26.63;;;11.50;99.90;;;;;;4950941;28;20069;-71
2022/10/21 05:05:51;;;;;;;262.63;24.10;;;11.40;99.90;;;;;;4949835;28;20043;-71
2022/10/21 05:08:18;;;;;;;63.03;18.85;;;11.40;99.90;;;;;;4929021;29;20036;-71
2022/10/21 05:10:43;;;;;;;135.85;19.80;;;11.40;99.90;;;;;;4946203;28;20130;-70
2022/10/21 05:13:09;;;;;;;157.75;17.98;;;11.30;99.90;;;;;;4951523;28;20134;-74
2022/10/21 05:15:35;;;;;;;175.15;16.25;;;11.30;99.90;;;;;;4966731;28;20472;-71
2022/10/21 05:18:01;;;;;;;81.80;16.33;;;11.30;99.90;;;;;;4945685;28;20098;-71
2022/10/21 05:20:26;;;;;;;37.03;17.55;;;11.20;99.90;;;;;;4950299;28;20482;-71
2022/10/21 05:22:52;;;;;;;45.45;20.58;;;11.20;99.90;;;;;;4949433;28;20054;-71
2022/10/21 05:25:18;;;;;;;366.33;27.63;;;11.20;99.90;;;;;;4946459;28;20039;-70
2022/10/21 05:27:44;;;;;;;156.88;21.85;;;11.20;99.90;;;;;;4941804;28;20055;-70
2022/10/21 05:30:11;;;;;;;177.02;22.15;;;11.20;99.90;;;;;;4951796;28;20130;-73
2022/10/21 05:32:37;;;;;;;145.63;19.88;;;11.20;99.90;;;;;;4954847;28;20133;-69
2022/10/21 05:35:03;;;;;;;60.28;18.80;;;11.10;99.90;;;;;;4944639;28;20577;-71
2022/10/21 05:37:28;;;;;;;61.72;20.92;;;11.10;99.90;;;;;;4929844;29;20078;-71
2022/10/21 05:39:54;;;;;;;79.47;23.33;;;11.20;99.90;;;;;;4953082;28;20042;-72
2022/10/21 05:42:20;;;;;;;122.03;27.20;;;11.10;99.90;;;;;;4952394;29;20305;-71
2022/10/21 05:44:45;;;;;;;42.30;23.90;;;11.10;99.90;;;;;;4948536;28;20117;-71
2022/10/21 05:47:11;;;;;;;95.63;30.52;;;11.00;99.90;;;;;;4952240;28;20564;-72
2022/10/21 05:49:36;;;;;;;60.15;29.88;;;11.10;99.90;;;;;;4943115;28;20039;-73
2022/10/21 05:52:02;;;;;;;65.05;29.15;;;11.10;99.90;;;;;;4952814;29;20202;-73
2022/10/21 05:54:27;;;;;;;57.30;25.98;;;11.20;99.90;;;;;;4952224;29;20046;-73
2022/10/21 05:56:57;;;;;;;52.90;24.67;;;11.10;99.90;;;;;;4951269;29;20488;-71
2022/10/21 05:59:23;;;;;;;51.22;26.55;;;11.10;99.90;;;;;;4946919;28;20401;-73
2022/10/21 06:01:49;;;;;;;137.45;37.95;;;11.10;99.90;;;;;;4949407;28;20509;-73
2022/10/21 06:04:14;;;;;;;112.57;38.45;;;11.20;99.90;;;;;;4949919;28;20125;-73
2022/10/21 06:06:40;;;;;;;102.25;36.67;;;11.20;99.90;;;;;;4946937;28;20043;-71
2022/10/21 06:09:05;;;;;;;98.35;37.33;;;11.30;99.90;;;;;;4949213;29;20107;-68
2022/10/21 06:11:31;;;;;;;141.23;39.72;;;11.30;99.90;;;;;;4953281;28;20138;-73
2022/10/21 06:13:57;;;;;;;81.88;30.45;;;11.40;99.90;;;;;;4951849;29;20054;-73
2022/10/21 06:16:22;;;;;;;122.90;38.05;;;11.40;99.90;;;;;;4951541;29;20142;-73
2022/10/21 06:18:48;;;;;;;135.50;40.67;;;11.40;99.90;;;;;;4951324;29;20054;-72
2022/10/21 06:21:14;;;;;;;100.80;36.65;;;11.40;99.90;;;;;;4951310;28;20183;-71
2022/10/21 06:23:39;;;;;;;155.68;41.95;;;11.40;99.90;;;;;;4952740;28;20055;-72
2022/10/21 06:26:09;;;;;;;63.90;32.53;;;11.40;99.90;;;;;;4945815;28;20039;-72
2022/10/21 06:28:37;;;;;;;68.80;33.63;;;11.40;99.90;;;;;;4947454;28;20043;-72
2022/10/21 06:31:03;;;;;;;102.75;36.58;;;11.50;99.90;;;;;;4951462;29;20164;-72
2022/10/21 06:33:29;;;;;;;153.15;38.45;;;11.40;99.90;;;;;;4947804;28;20130;-73
2022/10/21 06:35:54;;;;;;;225.65;43.75;;;11.40;99.90;;;;;;4951036;28;20130;-71
2022/10/21 06:38:20;;;;;;;63.72;30.05;;;11.40;99.90;;;;;;4943014;28;20051;-72
2022/10/21 06:40:47;;;;;;;258.02;30.35;;;11.40;99.90;;;;;;4951655;28;20069;-72
2022/10/21 06:43:13;;;;;;;407.23;40.40;;;11.40;99.90;;;;;;4946462;28;20046;-71
2022/10/21 06:45:39;;;;;;;76.13;32.47;;;11.40;99.90;;;;;;4950252;28;20055;-71
2022/10/21 06:48:04;;;;;;;139.07;28.42;;;11.30;99.90;;;;;;4951051;28;20393;-72
2022/10/21 06:50:30;;;;;;;431.92;29.67;;;11.30;99.90;;;;;;4957113;28;20058;-72
2022/10/21 06:52:55;;;;;;;315.90;26.75;;;11.30;99.90;;;;;;4953685;28;20082;-71
2022/10/21 06:55:21;;;;;;;304.52;31.83;;;11.30;99.90;;;;;;4951772;28;20047;-71
2022/10/21 06:57:47;;;;;;;190.10;28.67;;;11.30;99.90;;;;;;4952761;28;20035;-70
2022/10/21 07:00:13;;;;;;;200.02;31.02;;;11.30;99.90;;;;;;4952914;28;20043;-72
2022/10/21 07:02:38;;;;;;;160.73;26.67;;;11.30;99.90;;;;;;4954810;28;20039;-72
2022/10/21 07:05:04;;;;;;;126.68;29.40;;;11.20;99.90;;;;;;4954138;28;20587;-70
2022/10/21 07:07:30;;;;;;;230.00;29.38;;;11.30;99.90;;;;;;4957971;28;20138;-69
2022/10/21 07:09:56;;;;;;;52.08;26.38;;;11.20;99.90;;;;;;4951820;28;20102;-70
2022/10/21 07:12:26;;;;;;;60.90;29.55;;;11.30;99.90;;;;;;4951565;28;20035;-72
2022/10/21 07:14:55;;;;;;;69.05;31.08;;;11.30;99.90;;;;;;4963358;28;20082;-73
2022/10/21 07:17:21;;;;;;;66.78;29.52;;;11.30;99.90;;;;;;4963548;28;20043;-73
2022/10/21 07:19:47;;;;;;;57.33;28.17;;;11.40;99.90;;;;;;4937408;28;20494;-73
2022/10/21 07:22:13;;;;;;;192.40;31.52;;;11.40;99.90;;;;;;4956389;28;20043;-72
2022/10/21 07:24:39;;;;;;;60.08;27.20;;;11.40;99.90;;;;;;4955128;28;20035;-72
2022/10/21 07:27:05;;;;;;;91.90;37.85;;;11.40;99.90;;;;;;4954680;28;20054;-72
2022/10/21 07:29:31;;;;;;;84.38;36.67;;;11.50;99.90;;;;;;4947239;28;20043;-73
2022/10/21 07:31:56;;;;;;;115.97;39.40;;;11.60;99.90;;;;;;4948474;28;20502;-72
2022/10/21 07:34:23;;;;;;;77.50;35.53;;;11.60;99.90;;;;;;4946655;28;20039;-71
2022/10/21 07:36:51;;;;;;;79.13;36.40;;;11.70;99.90;;;;;;4963136;28;20501;-73
2022/10/21 07:39:20;;;;;;;88.32;37.03;;;11.80;99.90;;;;;;4962990;28;20413;-71
2022/10/21 07:41:51;;;;;;;75.63;32.67;;;11.90;99.90;;;;;;4954471;28;20051;-71
2022/10/21 07:44:18;;;;;;;191.77;33.25;;;11.90;99.90;;;;;;4950426;28;20047;-70
2022/10/21 07:46:44;;;;;;;182.10;37.38;;;11.90;99.90;;;;;;4950770;28;20050;-71
2022/10/21 07:49:11;;;;;;;68.90;33.47;;;12.00;99.90;;;;;;4950430;28;20397;-71
2022/10/21 07:51:37;;;;;;;84.72;31.88;;;12.00;99.90;;;;;;4945511;28;20043;-71
2022/10/21 07:54:04;;;;;;;101.75;35.10;;;12.10;99.90;;;;;;4951289;28;20046;-71
2022/10/21 07:56:32;;;;;;;73.00;34.97;;;12.10;99.90;;;;;;4951973;28;20122;-73
2022/10/21 07:58:58;;;;;;;66.85;34.63;;;12.20;99.90;;;;;;4949827;28;20043;-72
2022/10/21 08:01:24;;;;;;;76.30;35.25;;;12.30;99.90;;;;;;4945819;28;20139;-72
2022/10/21 08:03:52;;;;;;;75.50;35.72;;;12.30;99.90;;;;;;4936393;28;20134;-73
2022/10/21 08:06:17;;;;;;;72.20;37.38;;;12.50;99.90;;;;;;4947725;28;21837;-72
2022/10/21 08:08:44;;;;;;;80.75;38.28;;;12.60;99.90;;;;;;4950392;28;20066;-73
2022/10/21 08:11:10;;;;;;;85.63;41.55;;;12.70;99.90;;;;;;4945559;28;20042;-72
2022/10/21 08:13:38;;;;;;;89.68;41.05;;;12.80;99.90;;;;;;4952222;28;20119;-74
2022/10/21 08:16:05;;;;;;;83.00;41.28;;;13.00;99.90;;;;;;4952433;28;20050;-72
2022/10/21 08:18:31;;;;;;;73.85;38.22;;;13.10;99.90;;;;;;4950133;28;20126;-72
2022/10/21 08:20:57;;;;;;;85.95;42.00;;;13.30;99.90;;;;;;4949200;28;20047;-71
2022/10/21 08:23:25;;;;;;;76.82;40.63;;;13.40;99.90;;;;;;4957663;28;20094;-71
2022/10/21 08:25:53;;;;;;;80.78;40.90;;;13.60;99.90;;;;;;4952956;28;20548;-71
2022/10/21 08:28:21;;;;;;;81.13;40.05;;;13.70;99.90;;;;;;4949712;28;20114;-72
2022/10/21 08:30:47;;;;;;;74.00;39.78;;;13.80;99.90;;;;;;4954429;28;20039;-71
2022/10/21 08:33:13;;;;;;;67.30;35.75;;;13.90;99.90;;;;;;4954180;28;20054;-71
2022/10/21 08:35:40;;;;;;;72.85;37.67;;;14.00;99.90;;;;;;4956263;28;20122;-69
2022/10/21 08:38:06;;;;;;;67.75;35.67;;;14.00;99.90;;;;;;4953622;28;20151;-71
2022/10/21 08:40:43;;;;;;;66.25;34.72;;;14.10;99.90;;;;;;4948906;28;20178;-69
2022/10/21 08:43:25;;;;;;;69.85;34.85;;;14.20;99.90;;;;;;4953713;29;20069;-71
2022/10/21 08:46:06;;;;;;;65.13;33.30;;;14.20;99.90;;;;;;4945167;28;20106;-71
2022/10/21 08:48:40;;;;;;;65.60;31.83;;;14.20;99.90;;;;;;4947617;28;20090;-70
2022/10/21 08:51:15;;;;;;;54.20;29.67;;;14.20;99.90;;;;;;4952553;28;20039;-69
2022/10/21 08:53:46;;;;;;;52.15;29.73;;;14.30;99.90;;;;;;4954886;28;20756;-70
2022/10/21 08:56:13;;;;;;;53.70;28.33;;;14.30;99.90;;;;;;4953751;28;20051;-71
2022/10/21 08:58:39;;;;;;;48.40;27.00;;;14.40;99.90;;;;;;4943277;28;20081;-70
2022/10/21 09:01:15;;;;;;;43.60;25.73;;;14.40;99.90;;;;;;4945300;28;20070;-69
2022/10/21 09:03:53;;;;;;;48.70;28.52;;;14.40;99.90;;;;;;4944969;28;20081;-71
2022/10/21 09:06:32;;;;;;;51.40;27.63;;;14.40;99.90;;;;;;4942371;28;20077;-71
2022/10/21 09:09:13;;;;;;;55.13;29.02;;;14.50;99.90;;;;;;4948606;28;20406;-69
2022/10/21 09:11:48;;;;;;;51.47;27.92;;;14.60;99.90;;;;;;4954376;28;20044;-69
2022/10/21 09:14:47;;;;;;;40.40;23.27;;;14.70;99.90;;;;;;4948555;29;20042;-70
2022/10/21 09:17:38;;;;;;;37.30;23.38;;;14.80;99.90;;;;;;4952547;28;20486;-68
2022/10/21 09:20:44;;;;;;;44.50;25.98;;;14.90;99.90;;;;;;4949885;28;20043;-71
2022/10/21 09:23:51;;;;;;;37.92;22.60;;;14.90;99.90;;;;;;4950573;28;20046;-72
2022/10/21 09:26:51;;;;;;;37.33;23.17;;;15.00;99.90;;;;;;4952048;28;20054;-68
2022/10/21 09:29:28;;;;;;;34.08;22.98;;;15.10;99.90;;;;;;4952517;28;20054;-71
2022/10/21 09:32:18;;;;;;;40.60;23.83;;;15.10;99.90;;;;;;4952372;28;20777;-68
2022/10/21 09:35:06;;;;;;;35.60;22.33;;;15.20;99.90;;;;;;4949089;28;20047;-69
2022/10/21 09:37:40;;;;;;;31.17;20.05;;;15.20;99.90;;;;;;4938758;28;20039;-70
2022/10/21 09:40:16;;;;;;;35.38;18.77;;;15.30;99.90;;;;;;4952496;29;20043;-70
2022/10/21 09:42:42;;;;;;;28.02;18.15;;;15.30;99.90;;;;;;4953821;28;20094;-70
2022/10/21 09:45:25;;;;;;;28.00;19.50;;;15.30;99.90;;;;;;4950360;28;20040;-70
2022/10/21 09:48:18;;;;;;;28.98;19.30;;;15.30;99.90;;;;;;4952838;28;20047;-70
2022/10/21 09:50:46;;;;;;;27.58;17.63;;;15.40;99.90;;;;;;4928165;29;20055;-70
2022/10/21 09:53:17;;;;;;;29.20;17.63;;;15.40;99.90;;;;;;4946870;28;20039;-69
2022/10/21 09:55:47;;;;;;;25.60;16.60;;;15.40;99.90;;;;;;4943089;28;20043;-70
2022/10/21 09:58:25;;;;;;;28.95;16.95;;;15.50;99.90;;;;;;4949385;28;20126;-69
2022/10/21 10:00:51;;;;;;;24.55;16.10;;;15.50;99.90;;;;;;4956872;28;20067;-69
2022/10/21 10:03:35;;;;;;;27.65;14.90;;;15.50;99.90;;;;;;4954803;28;20058;-70
2022/10/21 10:06:03;;;;;;;28.73;15.98;;;15.60;99.90;;;;;;4950326;28;20051;-70
2022/10/21 10:08:49;;;;;;;23.52;16.05;;;15.60;99.90;;;;;;4944157;28;20126;-70
2022/10/21 10:11:20;;;;;;;22.00;13.98;;;15.60;99.90;;;;;;4946619;28;20071;-69
2022/10/21 10:13:53;;;;;;;23.92;13.65;;;15.60;99.90;;;;;;4962574;28;20126;-70
2022/10/21 10:16:28;;;;;;;22.80;14.43;;;15.70;99.90;;;;;;4950291;28;20043;-68
2022/10/21 10:19:10;;;;;;;22.40;13.50;;;15.70;99.90;;;;;;4947057;28;20061;-69
2022/10/21 10:21:35;;;;;;;23.40;13.18;;;15.70;99.90;;;;;;4970656;28;20046;-69
2022/10/21 10:24:01;;;;;;;24.17;12.50;;;15.80;99.90;;;;;;4941808;28;20150;-67
2022/10/21 10:26:28;;;;;;;21.60;13.55;;;15.80;99.90;;;;;;4950924;28;20122;-69
2022/10/21 10:29:22;;;;;;;26.85;13.38;;;15.80;99.90;;;;;;4946139;28;20047;-69
2022/10/21 10:31:52;;;;;;;19.58;13.20;;;15.90;99.90;;;;;;4944387;28;20062;-70
2022/10/21 10:34:32;;;;;;;22.40;13.20;;;15.90;99.90;;;;;;4951535;28;21278;-70
2022/10/21 10:37:22;;;;;;;20.58;12.10;;;15.90;99.90;;;;;;4953195;28;20059;-70
2022/10/21 10:39:51;;;;;;;19.77;12.40;;;16.00;99.90;;;;;;4945964;28;20085;-69
2022/10/21 10:42:20;;;;;;;18.38;11.57;;;16.00;99.90;;;;;;4964816;28;20131;-70
2022/10/21 10:44:46;;;;;;;21.30;12.10;;;16.00;99.90;;;;;;4949509;28;20130;-70
2022/10/21 10:47:41;;;;;;;18.02;12.00;;;16.00;99.90;;;;;;4944236;28;20146;-69
2022/10/21 10:50:46;;;;;;;21.67;12.40;;;16.10;99.90;;;;;;4933633;28;20047;-71
2022/10/21 10:53:22;;;;;;;16.95;11.52;;;16.10;99.90;;;;;;4945540;28;20039;-70
2022/10/21 10:56:05;;;;;;;23.27;11.48;;;16.20;99.90;;;;;;4953113;28;20047;-70
2022/10/21 10:58:35;;;;;;;21.77;11.60;;;16.20;99.90;;;;;;4941868;28;20470;-69
2022/10/21 11:01:06;;;;;;;18.40;11.48;;;16.30;99.90;;;;;;4947831;28;20047;-69
2022/10/21 11:03:56;;;;;;;17.00;11.27;;;16.30;99.90;;;;;;4944440;28;20051;-68
2022/10/21 11:06:35;;;;;;;17.83;11.45;;;16.50;99.90;;;;;;4949033;28;20051;-67
2022/10/21 11:09:01;;;;;;;18.33;11.48;;;16.60;99.90;;;;;;4964376;28;20058;-68
2022/10/21 11:11:37;;;;;;;16.02;11.13;;;16.60;99.90;;;;;;4947474;28;20040;-68
2022/10/21 11:14:10;;;;;;;15.43;10.77;;;16.70;99.90;;;;;;4948315;28;20063;-70
2022/10/21 11:16:42;;;;;;;;;;;16.80;99.90;;;;;;4947584;28;20047;-69
2022/10/21 11:19:41;;;;;;;15.88;10.20;;;16.80;99.90;;;;;;4940108;28;19918;-67
2022/10/21 11:22:15;;;;;;;16.67;10.00;;;16.80;99.90;;;;;;4942900;28;20047;-70
2022/10/21 11:24:53;;;;;;;24.92;10.73;;;16.80;99.90;;;;;;4950030;28;20039;-69
2022/10/21 11:27:26;;;;;;;16.30;10.23;;;16.90;99.90;;;;;;4949062;28;20609;-68
2022/10/21 11:30:22;;;;;;;13.13;9.40;;;16.90;99.90;;;;;;4950833;28;20151;-69
2022/10/21 11:32:59;;;;;;;15.20;9.50;;;16.90;99.90;;;;;;4945181;28;20070;-70
2022/10/21 11:35:56;;;;;;;18.27;9.75;;;16.90;99.90;;;;;;4945501;28;20090;-68
2022/10/21 11:38:28;;;;;;;13.85;8.82;;;17.00;99.90;;;;;;4949529;28;20054;-70
2022/10/21 11:41:08;;;;;;;23.73;9.07;;;16.90;99.90;;;;;;4947593;28;20083;-69
2022/10/21 11:43:58;;;;;;;17.00;9.73;;;16.90;99.90;;;;;;4944215;28;20046;-70
2022/10/21 11:46:52;;;;;;;13.10;8.77;;;17.00;99.90;;;;;;4951659;28;20082;-69
2022/10/21 11:49:20;;;;;;;16.45;9.02;;;16.90;99.90;;;;;;4946882;28;20402;-68
2022/10/21 11:52:02;;;;;;;15.40;9.35;;;16.90;99.90;;;;;;4947831;28;20053;-71
2022/10/21 11:54:45;;;;;;;19.73;8.52;;;17.00;99.90;;;;;;4947583;28;20039;-68
2022/10/21 11:57:24;;;;;;;16.23;8.68;;;17.00;99.90;;;;;;4937378;28;20509;-68
2022/10/21 12:00:12;;;;;;;16.27;9.45;;;17.00;99.90;;;;;;4951917;28;20051;-68
2022/10/21 12:02:42;;;;;;;11.82;8.65;;;17.00;99.90;;;;;;4954995;28;20051;-68
2022/10/21 12:05:13;;;;;;;14.60;9.57;;;17.10;99.90;;;;;;4949681;28;20125;-69
2022/10/21 12:08:03;;;;;;;15.25;9.00;;;17.10;99.90;;;;;;4943650;28;20490;-68
2022/10/21 12:10:41;;;;;;;14.55;8.18;;;17.10;99.90;;;;;;4953632;28;20565;-70
2022/10/21 12:13:31;;;;;;;15.73;8.77;;;17.20;99.90;;;;;;4948293;28;20455;-67
2022/10/21 12:16:13;;;;;;;18.40;8.85;;;17.20;99.90;;;;;;4968676;28;20106;-69
2022/10/21 12:18:48;;;;;;;12.68;8.50;;;17.20;99.90;;;;;;4950378;28;20047;-71
2022/10/21 12:21:17;;;;;;;12.38;8.65;;;17.20;99.90;;;;;;4947327;28;20055;-67
2022/10/21 12:23:46;;;;;;;14.15;8.38;;;17.20;99.90;;;;;;4952606;28;20035;-67
2022/10/21 12:26:22;;;;;;;16.85;9.20;;;17.20;99.90;;;;;;4952392;28;20055;-67
2022/10/21 12:29:10;;;;;;;12.00;7.38;;;17.30;99.90;;;;;;4950255;28;20047;-68
2022/10/21 12:31:54;;;;;;;14.73;7.95;;;17.10;99.90;;;;;;4946638;28;20039;-67
2022/10/21 12:34:21;;;;;;;15.05;8.18;;;17.10;99.90;;;;;;4950213;28;20044;-68
2022/10/21 12:36:49;;;;;;;20.05;8.63;;;17.10;99.90;;;;;;4949069;28;20056;-67
2022/10/21 12:39:33;;;;;;;14.63;7.13;;;17.10;99.90;;;;;;4949447;28;20070;-67
2022/10/21 12:42:13;;;;;;;11.73;7.88;;;17.10;99.90;;;;;;4948966;29;20047;-70
2022/10/21 12:44:45;;;;;;;14.82;8.23;;;17.10;99.90;;;;;;4943932;28;20643;-70